sensor_id;sensor_type;location;lat;lon;timestamp;pressure;altitude;pressure_sealevel;temperature;humidity
1472;BME280;963;42.644;23.336;2022-12-08T00:01:32;93998.81;;;6.85;80.04
1472;BME280;963;42.644;23.336;2022-12-08T00:03:59;94019.81;;;6.73;81.30
1472;BME280;963;42.644;23.336;2022-12-08T00:09:21;94022.16;;;6.78;81.78
1472;BME280;963;42.644;23.336;2022-12-08T00:14:38;94033.72;;;6.77;81.34
1472;BME280;963;42.644;23.336;2022-12-08T00:17:05;94028.16;;;6.78;81.02
1472;BME280;963;42.644;23.336;2022-12-08T00:19:31;94037.22;;;6.69;81.01
1472;BME280;963;42.644;23.336;2022-12-08T00:21:57;94050.69;;;6.55;82.63
1472;BME280;963;42.644;23.336;2022-12-08T00:24:24;94047.31;;;6.54;83.41
1472;BME280;963;42.644;23.336;2022-12-08T00:26:50;94043.34;;;6.61;83.02
1472;BME280;963;42.644;23.336;2022-12-08T00:29:16;94034.00;;;6.59;82.62
1472;BME280;963;42.644;23.336;2022-12-08T00:31:41;94031.63;;;6.54;82.07
1472;BME280;963;42.644;23.336;2022-12-08T00:34:07;94047.72;;;6.56;82.11
1472;BME280;963;42.644;23.336;2022-12-08T00:36:33;94036.59;;;6.59;82.31
1472;BME280;963;42.644;23.336;2022-12-08T00:38:59;94049.09;;;6.66;82.11
1472;BME280;963;42.644;23.336;2022-12-08T00:41:26;94061.41;;;6.66;81.57
1472;BME280;963;42.644;23.336;2022-12-08T00:44:12;94034.84;;;6.64;81.89
1472;BME280;963;42.644;23.336;2022-12-08T00:46:38;94053.56;;;6.66;81.44
1472;BME280;963;42.644;23.336;2022-12-08T00:49:04;94054.91;;;6.59;82.19
1472;BME280;963;42.644;23.336;2022-12-08T00:51:30;94054.47;;;6.57;82.17
1472;BME280;963;42.644;23.336;2022-12-08T00:53:55;94052.97;;;6.56;82.13
1472;BME280;963;42.644;23.336;2022-12-08T00:56:21;94064.81;;;6.26;83.85
1472;BME280;963;42.644;23.336;2022-12-08T00:58:47;94057.28;;;6.37;83.23
1472;BME280;963;42.644;23.336;2022-12-08T01:01:13;94062.56;;;6.52;83.17
1472;BME280;963;42.644;23.336;2022-12-08T01:03:39;94058.41;;;6.51;82.83
1472;BME280;963;42.644;23.336;2022-12-08T01:06:05;94042.91;;;6.43;83.04
1472;BME280;963;42.644;23.336;2022-12-08T01:08:31;94040.28;;;6.43;83.02
1472;BME280;963;42.644;23.336;2022-12-08T01:11:03;94037.53;;;6.51;82.88
1472;BME280;963;42.644;23.336;2022-12-08T01:13:28;94050.69;;;6.55;83.39
1472;BME280;963;42.644;23.336;2022-12-08T01:15:54;94046.41;;;6.63;83.25
1472;BME280;963;42.644;23.336;2022-12-08T01:18:19;94048.00;;;6.67;82.56
1472;BME280;963;42.644;23.336;2022-12-08T01:20:44;94047.25;;;6.67;82.43
1472;BME280;963;42.644;23.336;2022-12-08T01:23:10;94053.22;;;6.67;81.55
1472;BME280;963;42.644;23.336;2022-12-08T01:25:36;94056.19;;;6.66;82.28
1472;BME280;963;42.644;23.336;2022-12-08T01:28:01;94055.75;;;6.64;82.54
1472;BME280;963;42.644;23.336;2022-12-08T01:30:27;94064.25;;;6.61;82.45
1472;BME280;963;42.644;23.336;2022-12-08T01:32:52;94049.25;;;6.57;82.74
1472;BME280;963;42.644;23.336;2022-12-08T01:35:17;94047.06;;;6.59;82.73
1472;BME280;963;42.644;23.336;2022-12-08T01:37:43;94043.78;;;6.63;82.82
1472;BME280;963;42.644;23.336;2022-12-08T01:40:09;94046.03;;;6.48;82.79
1472;BME280;963;42.644;23.336;2022-12-08T01:42:34;94028.25;;;6.54;82.19
1472;BME280;963;42.644;23.336;2022-12-08T01:45:26;94035.53;;;6.61;82.35
1472;BME280;963;42.644;23.336;2022-12-08T01:47:56;94022.69;;;6.55;82.62
1472;BME280;963;42.644;23.336;2022-12-08T01:50:23;94021.75;;;6.48;82.27
1472;BME280;963;42.644;23.336;2022-12-08T01:52:56;94011.88;;;6.41;83.04
1472;BME280;963;42.644;23.336;2022-12-08T01:55:54;94013.06;;;6.44;82.71
1472;BME280;963;42.644;23.336;2022-12-08T01:58:26;94032.25;;;6.36;83.77
1472;BME280;963;42.644;23.336;2022-12-08T02:00:53;94010.88;;;6.46;83.19
1472;BME280;963;42.644;23.336;2022-12-08T02:03:28;93999.91;;;6.40;82.85
1472;BME280;963;42.644;23.336;2022-12-08T02:05:55;94002.47;;;6.52;82.67
1472;BME280;963;42.644;23.336;2022-12-08T02:08:22;93993.97;;;6.27;83.25
1472;BME280;963;42.644;23.336;2022-12-08T02:10:50;94013.63;;;6.37;83.14
1472;BME280;963;42.644;23.336;2022-12-08T02:13:18;94021.91;;;6.39;82.60
1472;BME280;963;42.644;23.336;2022-12-08T02:16:09;94004.13;;;6.45;81.49
1472;BME280;963;42.644;23.336;2022-12-08T02:21:52;94014.63;;;6.33;81.46
1472;BME280;963;42.644;23.336;2022-12-08T02:30:17;93994.06;;;6.03;82.27
1472;BME280;963;42.644;23.336;2022-12-08T02:32:53;94014.56;;;6.17;82.60
1472;BME280;963;42.644;23.336;2022-12-08T02:46:48;93980.25;;;5.90;84.61
1472;BME280;963;42.644;23.336;2022-12-08T02:49:15;93995.00;;;6.11;83.51
1472;BME280;963;42.644;23.336;2022-12-08T02:51:41;93991.59;;;6.22;82.94
1472;BME280;963;42.644;23.336;2022-12-08T02:54:06;93992.34;;;6.23;82.64
1472;BME280;963;42.644;23.336;2022-12-08T03:05:06;94018.44;;;5.95;83.13
1472;BME280;963;42.644;23.336;2022-12-08T03:08:15;93994.47;;;6.05;83.09
1472;BME280;963;42.644;23.336;2022-12-08T03:10:51;94012.00;;;6.05;82.26
1472;BME280;963;42.644;23.336;2022-12-08T03:13:42;94012.00;;;6.05;82.30
1472;BME280;963;42.644;23.336;2022-12-08T03:16:11;94002.13;;;5.98;82.31
1472;BME280;963;42.644;23.336;2022-12-08T03:18:42;93997.09;;;6.05;82.80
1472;BME280;963;42.644;23.336;2022-12-08T03:21:13;93993.06;;;6.08;82.87
1472;BME280;963;42.644;23.336;2022-12-08T03:23:40;93988.72;;;6.00;82.56
1472;BME280;963;42.644;23.336;2022-12-08T03:26:37;93995.72;;;5.95;83.96
1472;BME280;963;42.644;23.336;2022-12-08T03:29:05;93995.00;;;6.11;81.85
1472;BME280;963;42.644;23.336;2022-12-08T03:31:33;93994.16;;;6.07;82.55
1472;BME280;963;42.644;23.336;2022-12-08T03:34:02;93997.56;;;5.95;82.15
1472;BME280;963;42.644;23.336;2022-12-08T03:36:29;93999.84;;;5.97;82.07
1472;BME280;963;42.644;23.336;2022-12-08T03:38:54;94008.44;;;5.97;82.54
1472;BME280;963;42.644;23.336;2022-12-08T03:41:21;94010.28;;;5.72;83.75
1472;BME280;963;42.644;23.336;2022-12-08T03:43:49;94004.97;;;5.69;83.77
1472;BME280;963;42.644;23.336;2022-12-08T03:46:16;94008.97;;;5.78;83.42
1472;BME280;963;42.644;23.336;2022-12-08T03:48:42;94016.47;;;5.80;83.39
1472;BME280;963;42.644;23.336;2022-12-08T03:51:07;93995.59;;;5.80;83.85
1472;BME280;963;42.644;23.336;2022-12-08T03:53:33;94009.16;;;5.85;83.03
1472;BME280;963;42.644;23.336;2022-12-08T03:55:58;94011.34;;;5.83;83.20
1472;BME280;963;42.644;23.336;2022-12-08T03:58:24;93997.97;;;5.85;82.84
1472;BME280;963;42.644;23.336;2022-12-08T04:00:50;94000.66;;;5.88;83.36
1472;BME280;963;42.644;23.336;2022-12-08T04:03:15;94006.34;;;5.90;83.40
1472;BME280;963;42.644;23.336;2022-12-08T04:05:41;94032.69;;;5.98;83.17
1472;BME280;963;42.644;23.336;2022-12-08T04:08:06;94045.41;;;5.99;83.33
1472;BME280;963;42.644;23.336;2022-12-08T04:10:31;94024.53;;;5.99;83.16
1472;BME280;963;42.644;23.336;2022-12-08T04:12:57;94037.00;;;5.93;82.97
1472;BME280;963;42.644;23.336;2022-12-08T04:15:22;94002.88;;;5.99;82.95
1472;BME280;963;42.644;23.336;2022-12-08T04:17:47;94012.44;;;5.94;82.38
1472;BME280;963;42.644;23.336;2022-12-08T04:20:13;94042.66;;;5.83;83.12
1472;BME280;963;42.644;23.336;2022-12-08T04:22:38;94032.88;;;5.80;83.07
1472;BME280;963;42.644;23.336;2022-12-08T04:25:04;94019.22;;;5.59;83.83
1472;BME280;963;42.644;23.336;2022-12-08T04:27:31;94013.19;;;5.83;83.93
1472;BME280;963;42.644;23.336;2022-12-08T04:29:56;94019.06;;;5.92;83.45
1472;BME280;963;42.644;23.336;2022-12-08T04:32:21;94023.97;;;5.81;83.77
1472;BME280;963;42.644;23.336;2022-12-08T04:34:47;94021.88;;;5.87;83.89
1472;BME280;963;42.644;23.336;2022-12-08T04:37:12;94012.19;;;5.87;83.30
1472;BME280;963;42.644;23.336;2022-12-08T04:39:38;94022.13;;;5.94;83.90
1472;BME280;963;42.644;23.336;2022-12-08T04:42:03;94015.50;;;5.97;83.72
1472;BME280;963;42.644;23.336;2022-12-08T04:44:28;94016.03;;;5.90;83.51
1472;BME280;963;42.644;23.336;2022-12-08T04:46:54;94002.97;;;6.02;83.88
1472;BME280;963;42.644;23.336;2022-12-08T04:49:19;94020.03;;;6.12;82.90
1472;BME280;963;42.644;23.336;2022-12-08T04:51:45;94021.97;;;6.15;82.77
1472;BME280;963;42.644;23.336;2022-12-08T04:54:10;94019.13;;;6.20;82.77
1472;BME280;963;42.644;23.336;2022-12-08T04:56:36;94022.34;;;6.29;82.49
1472;BME280;963;42.644;23.336;2022-12-08T04:59:01;94022.34;;;6.29;81.69
1472;BME280;963;42.644;23.336;2022-12-08T05:01:26;94016.69;;;6.27;82.38
1472;BME280;963;42.644;23.336;2022-12-08T05:03:52;94052.50;;;6.39;81.77
1472;BME280;963;42.644;23.336;2022-12-08T05:06:17;94044.56;;;6.35;82.25
1472;BME280;963;42.644;23.336;2022-12-08T05:08:43;94030.81;;;6.38;81.78
1472;BME280;963;42.644;23.336;2022-12-08T05:11:10;94033.63;;;6.45;81.51
1472;BME280;963;42.644;23.336;2022-12-08T05:13:36;94018.09;;;6.37;81.91
1472;BME280;963;42.644;23.336;2022-12-08T05:16:11;94037.66;;;6.43;81.46
1472;BME280;963;42.644;23.336;2022-12-08T05:18:37;94039.53;;;6.42;82.06
1472;BME280;963;42.644;23.336;2022-12-08T05:21:04;94048.94;;;6.19;82.83
1472;BME280;963;42.644;23.336;2022-12-08T05:23:30;94046.75;;;6.21;82.74
1472;BME280;963;42.644;23.336;2022-12-08T05:25:56;94052.38;;;6.35;82.07
1472;BME280;963;42.644;23.336;2022-12-08T05:28:21;94041.81;;;6.32;81.82
1472;BME280;963;42.644;23.336;2022-12-08T05:30:46;94050.22;;;6.37;81.99
1472;BME280;963;42.644;23.336;2022-12-08T05:33:12;94047.69;;;6.41;81.79
1472;BME280;963;42.644;23.336;2022-12-08T05:35:37;94052.44;;;6.51;82.40
1472;BME280;963;42.644;23.336;2022-12-08T05:38:04;94045.69;;;6.50;81.94
1472;BME280;963;42.644;23.336;2022-12-08T05:40:29;94056.66;;;6.55;81.36
1472;BME280;963;42.644;23.336;2022-12-08T05:42:54;94068.25;;;6.42;81.90
1472;BME280;963;42.644;23.336;2022-12-08T05:45:20;94053.25;;;6.39;82.20
1472;BME280;963;42.644;23.336;2022-12-08T05:47:45;94044.13;;;6.33;81.74
1472;BME280;963;42.644;23.336;2022-12-08T05:50:11;94064.66;;;6.47;82.03
1472;BME280;963;42.644;23.336;2022-12-08T05:52:36;94053.63;;;6.53;81.64
1472;BME280;963;42.644;23.336;2022-12-08T05:55:02;94070.59;;;6.59;81.09
1472;BME280;963;42.644;23.336;2022-12-08T05:57:28;94061.22;;;6.58;81.36
1472;BME280;963;42.644;23.336;2022-12-08T05:59:53;94066.44;;;6.58;80.74
1472;BME280;963;42.644;23.336;2022-12-08T06:02:18;94053.81;;;6.61;80.59
1472;BME280;963;42.644;23.336;2022-12-08T06:04:44;94050.34;;;6.56;81.22
1472;BME280;963;42.644;23.336;2022-12-08T06:07:09;94063.16;;;6.62;80.42
1472;BME280;963;42.644;23.336;2022-12-08T06:09:34;94064.94;;;6.57;79.98
1472;BME280;963;42.644;23.336;2022-12-08T06:12:00;94069.50;;;6.61;79.79
1472;BME280;963;42.644;23.336;2022-12-08T06:14:26;94067.72;;;6.65;79.58
1472;BME280;963;42.644;23.336;2022-12-08T06:16:51;94075.13;;;6.63;79.99
1472;BME280;963;42.644;23.336;2022-12-08T06:19:17;94065.16;;;6.52;80.60
1472;BME280;963;42.644;23.336;2022-12-08T06:21:42;94045.16;;;6.44;80.04
1472;BME280;963;42.644;23.336;2022-12-08T06:24:07;94079.19;;;6.60;79.69
1472;BME280;963;42.644;23.336;2022-12-08T06:26:33;94077.84;;;6.66;79.68
1472;BME280;963;42.644;23.336;2022-12-08T06:29:00;94087.13;;;6.64;79.70
1472;BME280;963;42.644;23.336;2022-12-08T06:31:26;94093.44;;;6.63;79.55
1472;BME280;963;42.644;23.336;2022-12-08T06:33:52;94088.88;;;6.59;79.20
1472;BME280;963;42.644;23.336;2022-12-08T06:36:21;94083.22;;;6.57;80.05
1472;BME280;963;42.644;23.336;2022-12-08T06:38:48;94081.88;;;6.64;78.91
1472;BME280;963;42.644;23.336;2022-12-08T06:41:14;94089.63;;;6.60;79.48
1472;BME280;963;42.644;23.336;2022-12-08T06:43:40;94102.28;;;6.58;79.87
1472;BME280;963;42.644;23.336;2022-12-08T06:46:08;94076.53;;;6.44;79.66
1472;BME280;963;42.644;23.336;2022-12-08T06:48:34;94044.50;;;6.47;79.87
1472;BME280;963;42.644;23.336;2022-12-08T06:51:14;94080.50;;;6.54;79.82
1472;BME280;963;42.644;23.336;2022-12-08T06:53:40;94050.06;;;6.46;79.90
1472;BME280;963;42.644;23.336;2022-12-08T06:56:06;94061.13;;;6.55;80.18
1472;BME280;963;42.644;23.336;2022-12-08T06:58:32;94068.06;;;6.35;81.62
1472;BME280;963;42.644;23.336;2022-12-08T07:01:04;94078.09;;;6.61;80.30
1472;BME280;963;42.644;23.336;2022-12-08T07:03:29;94082.75;;;6.68;80.22
1472;BME280;963;42.644;23.336;2022-12-08T07:05:55;94077.97;;;6.70;79.86
1472;BME280;963;42.644;23.336;2022-12-08T07:08:22;94061.41;;;6.66;79.48
1472;BME280;963;42.644;23.336;2022-12-08T07:10:47;94080.84;;;6.80;79.73
1472;BME280;963;42.644;23.336;2022-12-08T07:13:12;94068.72;;;6.88;79.58
1472;BME280;963;42.644;23.336;2022-12-08T07:15:38;94100.38;;;6.99;79.29
1472;BME280;963;42.644;23.336;2022-12-08T07:18:03;94100.97;;;6.52;80.40
1472;BME280;963;42.644;23.336;2022-12-08T07:20:29;94103.91;;;6.90;79.05
1472;BME280;963;42.644;23.336;2022-12-08T07:22:54;94091.91;;;6.89;79.31
1472;BME280;963;42.644;23.336;2022-12-08T07:25:20;94113.44;;;6.99;78.24
1472;BME280;963;42.644;23.336;2022-12-08T07:27:46;94112.34;;;7.00;78.39
1472;BME280;963;42.644;23.336;2022-12-08T07:30:12;94112.09;;;7.05;77.86
1472;BME280;963;42.644;23.336;2022-12-08T07:32:38;94133.56;;;7.10;77.05
1472;BME280;963;42.644;23.336;2022-12-08T07:35:04;94121.09;;;7.19;77.29
1472;BME280;963;42.644;23.336;2022-12-08T07:37:32;94121.94;;;7.24;77.24
1472;BME280;963;42.644;23.336;2022-12-08T07:39:58;94121.19;;;7.39;76.79
1472;BME280;963;42.644;23.336;2022-12-08T07:42:24;94124.66;;;7.43;76.14
1472;BME280;963;42.644;23.336;2022-12-08T07:44:49;94116.00;;;7.55;76.04
1472;BME280;963;42.644;23.336;2022-12-08T07:47:14;94143.84;;;7.63;75.99
1472;BME280;963;42.644;23.336;2022-12-08T07:49:40;94121.56;;;7.53;76.31
1472;BME280;963;42.644;23.336;2022-12-08T07:52:05;94094.53;;;7.65;75.40
1472;BME280;963;42.644;23.336;2022-12-08T07:54:31;94144.69;;;7.67;76.19
1472;BME280;963;42.644;23.336;2022-12-08T07:56:56;94105.25;;;7.75;76.69
1472;BME280;963;42.644;23.336;2022-12-08T07:59:22;94135.91;;;7.91;75.76
1472;BME280;963;42.644;23.336;2022-12-08T08:01:47;94114.41;;;7.81;75.61
1472;BME280;963;42.644;23.336;2022-12-08T08:04:13;94131.44;;;7.75;76.95
1472;BME280;963;42.644;23.336;2022-12-08T08:06:38;94111.00;;;7.97;75.58
1472;BME280;963;42.644;23.336;2022-12-08T08:09:04;94120.00;;;8.15;75.48
1472;BME280;963;42.644;23.336;2022-12-08T08:11:29;94110.44;;;8.38;74.35
1472;BME280;963;42.644;23.336;2022-12-08T08:13:55;94111.28;;;8.27;74.46
1472;BME280;963;42.644;23.336;2022-12-08T08:16:21;94103.50;;;8.30;74.41
1472;BME280;963;42.644;23.336;2022-12-08T08:18:48;94118.53;;;8.68;72.83
1472;BME280;963;42.644;23.336;2022-12-08T08:21:14;94113.91;;;8.81;72.55
1472;BME280;963;42.644;23.336;2022-12-08T08:23:40;94144.06;;;8.91;72.13
1472;BME280;963;42.644;23.336;2022-12-08T08:26:05;94114.34;;;9.02;71.81
1472;BME280;963;42.644;23.336;2022-12-08T08:28:31;94114.88;;;9.12;71.86
1472;BME280;963;42.644;23.336;2022-12-08T08:30:58;94110.72;;;9.30;71.54
1472;BME280;963;42.644;23.336;2022-12-08T08:33:23;94125.88;;;9.40;71.21
1472;BME280;963;42.644;23.336;2022-12-08T08:35:50;94111.16;;;8.93;72.48
1472;BME280;963;42.644;23.336;2022-12-08T08:38:15;94114.34;;;9.25;71.82
1472;BME280;963;42.644;23.336;2022-12-08T08:40:41;94110.22;;;9.24;71.73
1472;BME280;963;42.644;23.336;2022-12-08T08:43:06;94123.53;;;9.35;71.48
1472;BME280;963;42.644;23.336;2022-12-08T08:45:32;94134.22;;;9.46;71.50
1472;BME280;963;42.644;23.336;2022-12-08T08:47:58;94125.41;;;9.57;71.17
1472;BME280;963;42.644;23.336;2022-12-08T08:50:23;94094.63;;;9.54;71.27
1472;BME280;963;42.644;23.336;2022-12-08T08:52:48;94123.22;;;9.17;71.95
1472;BME280;963;42.644;23.336;2022-12-08T08:55:15;94114.78;;;9.50;71.36
1472;BME280;963;42.644;23.336;2022-12-08T08:57:40;94112.28;;;9.80;70.36
1472;BME280;963;42.644;23.336;2022-12-08T09:00:06;94099.00;;;9.96;69.85
1472;BME280;963;42.644;23.336;2022-12-08T09:02:34;94091.16;;;10.22;70.21
1472;BME280;963;42.644;23.336;2022-12-08T09:05:00;94088.81;;;10.17;69.69
1472;BME280;963;42.644;23.336;2022-12-08T09:07:29;94112.78;;;10.12;70.01
1472;BME280;963;42.644;23.336;2022-12-08T09:09:58;94097.00;;;10.12;69.88
1472;BME280;963;42.644;23.336;2022-12-08T09:12:24;94073.44;;;9.93;70.52
1472;BME280;963;42.644;23.336;2022-12-08T09:14:49;94090.06;;;10.00;70.09
1472;BME280;963;42.644;23.336;2022-12-08T09:17:15;94085.09;;;10.18;69.88
1472;BME280;963;42.644;23.336;2022-12-08T09:19:40;94070.50;;;10.21;70.14
1472;BME280;963;42.644;23.336;2022-12-08T09:22:06;94066.53;;;9.81;71.29
1472;BME280;963;42.644;23.336;2022-12-08T09:24:31;94090.28;;;10.15;70.15
1472;BME280;963;42.644;23.336;2022-12-08T09:27:00;94078.22;;;10.10;70.30
1472;BME280;963;42.644;23.336;2022-12-08T09:29:25;94071.66;;;10.23;70.21
1472;BME280;963;42.644;23.336;2022-12-08T09:31:51;94070.31;;;10.37;69.88
1472;BME280;963;42.644;23.336;2022-12-08T09:34:18;94065.19;;;10.44;69.22
1472;BME280;963;42.644;23.336;2022-12-08T09:36:44;94070.16;;;10.52;68.74
1472;BME280;963;42.644;23.336;2022-12-08T09:39:09;94067.88;;;10.51;68.78
1472;BME280;963;42.644;23.336;2022-12-08T09:41:47;94061.19;;;10.57;68.71
1472;BME280;963;42.644;23.336;2022-12-08T09:47:12;94069.03;;;10.83;68.04
1472;BME280;963;42.644;23.336;2022-12-08T09:50:13;94072.53;;;10.94;67.36
1472;BME280;963;42.644;23.336;2022-12-08T09:52:48;94058.25;;;10.95;67.78
1472;BME280;963;42.644;23.336;2022-12-08T09:55:36;94058.13;;;11.18;66.86
1472;BME280;963;42.644;23.336;2022-12-08T09:59:03;94065.41;;;11.36;65.84
1472;BME280;963;42.644;23.336;2022-12-08T10:01:02;94068.91;;;11.50;64.94
1472;BME280;963;42.644;23.336;2022-12-08T10:03:29;94045.84;;;11.33;65.31
1472;BME280;963;42.644;23.336;2022-12-08T10:09:02;94033.13;;;11.42;64.68
1472;BME280;963;42.644;23.336;2022-12-08T10:11:38;94027.13;;;11.45;64.44
1472;BME280;963;42.644;23.336;2022-12-08T10:14:21;94026.50;;;11.63;63.91
1472;BME280;963;42.644;23.336;2022-12-08T10:16:56;94021.59;;;11.57;64.00
1472;BME280;963;42.644;23.336;2022-12-08T10:19:26;94032.50;;;11.59;63.94
1472;BME280;963;42.644;23.336;2022-12-08T10:21:52;94021.84;;;11.45;64.23
1472;BME280;963;42.644;23.336;2022-12-08T10:24:25;94019.41;;;11.22;64.84
1472;BME280;963;42.644;23.336;2022-12-08T10:26:54;94010.94;;;11.43;64.56
1472;BME280;963;42.644;23.336;2022-12-08T10:29:20;94024.13;;;11.50;64.54
1472;BME280;963;42.644;23.336;2022-12-08T10:31:45;94033.13;;;11.46;64.39
1472;BME280;963;42.644;23.336;2022-12-08T10:36:47;94020.47;;;11.58;63.86
1472;BME280;963;42.644;23.336;2022-12-08T10:39:41;94003.81;;;11.47;63.92
1472;BME280;963;42.644;23.336;2022-12-08T10:44:52;94005.41;;;11.55;64.54
1472;BME280;963;42.644;23.336;2022-12-08T10:47:21;93997.78;;;11.98;64.13
1472;BME280;963;42.644;23.336;2022-12-08T10:50:05;93990.84;;;12.45;61.88
1472;BME280;963;42.644;23.336;2022-12-08T10:52:31;93975.88;;;12.84;61.19
1472;BME280;963;42.644;23.336;2022-12-08T10:54:59;93998.25;;;13.48;60.19
1472;BME280;963;42.644;23.336;2022-12-08T10:57:24;93984.25;;;13.86;57.90
1472;BME280;963;42.644;23.336;2022-12-08T10:59:54;93975.13;;;14.16;57.64
1472;BME280;963;42.644;23.336;2022-12-08T11:02:22;93966.69;;;14.49;55.99
1472;BME280;963;42.644;23.336;2022-12-08T11:04:55;93968.91;;;14.61;54.61
1472;BME280;963;42.644;23.336;2022-12-08T11:07:23;93972.84;;;14.14;56.02
1472;BME280;963;42.644;23.336;2022-12-08T11:09:53;93969.00;;;14.33;55.47
1472;BME280;963;42.644;23.336;2022-12-08T11:12:21;93976.56;;;14.31;55.74
1472;BME280;963;42.644;23.336;2022-12-08T11:14:50;93961.44;;;14.35;55.59
1472;BME280;963;42.644;23.336;2022-12-08T11:20:03;93953.84;;;14.44;55.61
1472;BME280;963;42.644;23.336;2022-12-08T11:22:44;93935.69;;;14.50;55.21
1472;BME280;963;42.644;23.336;2022-12-08T11:25:17;93943.28;;;14.44;54.69
1472;BME280;963;42.644;23.336;2022-12-08T11:27:51;93932.78;;;14.16;55.98
1472;BME280;963;42.644;23.336;2022-12-08T11:30:22;93926.59;;;14.54;55.07
1472;BME280;963;42.644;23.336;2022-12-08T11:33:10;93929.56;;;14.63;54.51
1472;BME280;963;42.644;23.336;2022-12-08T11:35:40;93948.81;;;14.71;54.58
1472;BME280;963;42.644;23.336;2022-12-08T11:38:14;93939.78;;;14.65;54.45
1472;BME280;963;42.644;23.336;2022-12-08T11:40:42;93934.88;;;14.60;55.10
1472;BME280;963;42.644;23.336;2022-12-08T11:46:00;93930.41;;;14.39;55.30
1472;BME280;963;42.644;23.336;2022-12-08T11:48:36;93927.81;;;14.32;55.27
1472;BME280;963;42.644;23.336;2022-12-08T11:56:39;93945.50;;;14.49;55.31
1472;BME280;963;42.644;23.336;2022-12-08T11:59:25;93925.88;;;14.50;55.20
1472;BME280;963;42.644;23.336;2022-12-08T12:02:03;93937.09;;;14.68;54.97
1472;BME280;963;42.644;23.336;2022-12-08T12:07:52;93918.97;;;14.67;54.71
1472;BME280;963;42.644;23.336;2022-12-08T12:10:32;93914.41;;;14.67;54.66
1472;BME280;963;42.644;23.336;2022-12-08T12:18:46;93919.13;;;14.28;55.73
1472;BME280;963;42.644;23.336;2022-12-08T12:26:27;93916.47;;;15.01;55.12
1472;BME280;963;42.644;23.336;2022-12-08T12:31:27;93914.75;;;15.73;52.61
1472;BME280;963;42.644;23.336;2022-12-08T12:34:04;93905.13;;;15.86;51.91
1472;BME280;963;42.644;23.336;2022-12-08T12:36:31;93904.00;;;16.21;51.81
1472;BME280;963;42.644;23.336;2022-12-08T12:38:57;93903.38;;;16.71;50.62
1472;BME280;963;42.644;23.336;2022-12-08T12:41:36;93901.47;;;16.72;49.73
1472;BME280;963;42.644;23.336;2022-12-08T12:57:23;93892.25;;;16.19;51.00
1472;BME280;963;42.644;23.336;2022-12-08T13:05:25;93878.03;;;15.72;52.08
1472;BME280;963;42.644;23.336;2022-12-08T13:08:00;93884.97;;;15.55;52.08
1472;BME280;963;42.644;23.336;2022-12-08T13:11:06;93882.00;;;15.05;53.57
1472;BME280;963;42.644;23.336;2022-12-08T13:13:37;93880.09;;;15.09;53.76
1472;BME280;963;42.644;23.336;2022-12-08T13:16:12;93890.75;;;15.01;53.67
1472;BME280;963;42.644;23.336;2022-12-08T13:18:41;93890.09;;;14.83;54.17
1472;BME280;963;42.644;23.336;2022-12-08T13:39:35;93894.13;;;14.36;56.38
1472;BME280;963;42.644;23.336;2022-12-08T13:44:54;93874.53;;;14.30;57.14
1472;BME280;963;42.644;23.336;2022-12-08T13:47:27;93873.09;;;14.15;57.25
1472;BME280;963;42.644;23.336;2022-12-08T13:50:20;93885.56;;;14.07;56.94
1472;BME280;963;42.644;23.336;2022-12-08T13:53:02;93876.13;;;14.06;57.61
1472;BME280;963;42.644;23.336;2022-12-08T13:55:37;93877.69;;;14.00;57.32
1472;BME280;963;42.644;23.336;2022-12-08T13:58:04;93882.66;;;13.87;57.84
1472;BME280;963;42.644;23.336;2022-12-08T14:00:30;93899.75;;;13.01;60.10
1472;BME280;963;42.644;23.336;2022-12-08T14:02:58;93905.00;;;13.36;59.48
1472;BME280;963;42.644;23.336;2022-12-08T14:05:26;93889.16;;;13.36;59.72
1472;BME280;963;42.644;23.336;2022-12-08T14:07:54;93886.91;;;13.28;59.67
1472;BME280;963;42.644;23.336;2022-12-08T14:10:28;93884.66;;;13.30;59.93
1472;BME280;963;42.644;23.336;2022-12-08T14:12:59;93877.09;;;13.28;60.27
1472;BME280;963;42.644;23.336;2022-12-08T14:15:26;93884.66;;;13.19;60.19
1472;BME280;963;42.644;23.336;2022-12-08T14:17:56;93888.81;;;13.20;60.35
1472;BME280;963;42.644;23.336;2022-12-08T14:20:32;93896.72;;;13.20;60.57
1472;BME280;963;42.644;23.336;2022-12-08T14:22:58;93901.63;;;13.11;60.86
1472;BME280;963;42.644;23.336;2022-12-08T14:25:25;93901.25;;;13.05;61.38
1472;BME280;963;42.644;23.336;2022-12-08T14:28:00;93903.50;;;13.00;61.22
1472;BME280;963;42.644;23.336;2022-12-08T14:30:31;93888.41;;;12.90;61.62
1472;BME280;963;42.644;23.336;2022-12-08T14:33:01;93874.44;;;12.82;61.79
1472;BME280;963;42.644;23.336;2022-12-08T14:35:32;93886.13;;;12.84;62.18
1472;BME280;963;42.644;23.336;2022-12-08T14:38:00;93894.44;;;12.79;62.53
1472;BME280;963;42.644;23.336;2022-12-08T14:40:33;93892.16;;;12.71;62.80
1472;BME280;963;42.644;23.336;2022-12-08T14:45:45;93881.97;;;12.55;63.00
1472;BME280;963;42.644;23.336;2022-12-08T14:48:40;93883.84;;;12.55;63.36
1472;BME280;963;42.644;23.336;2022-12-08T14:58:39;93881.56;;;12.35;64.17
1472;BME280;963;42.644;23.336;2022-12-08T15:01:05;93889.84;;;12.34;64.27
1472;BME280;963;42.644;23.336;2022-12-08T15:03:32;93892.81;;;12.25;64.61
1472;BME280;963;42.644;23.336;2022-12-08T15:06:07;93911.63;;;12.24;64.63
1472;BME280;963;42.644;23.336;2022-12-08T15:08:34;93903.34;;;12.18;64.96
1472;BME280;963;42.644;23.336;2022-12-08T15:13:47;93902.19;;;12.08;65.57
1472;BME280;963;42.644;23.336;2022-12-08T15:16:27;93905.94;;;12.07;65.33
1472;BME280;963;42.644;23.336;2022-12-08T15:21:34;93909.22;;;11.83;65.97
1472;BME280;963;42.644;23.336;2022-12-08T15:24:01;93912.91;;;11.75;66.53
1472;BME280;963;42.644;23.336;2022-12-08T15:26:27;93904.59;;;11.66;66.62
1472;BME280;963;42.644;23.336;2022-12-08T15:28:53;93909.88;;;11.66;66.54
1472;BME280;963;42.644;23.336;2022-12-08T15:31:19;93923.81;;;11.70;66.42
1472;BME280;963;42.644;23.336;2022-12-08T15:33:44;93911.38;;;11.67;66.41
1472;BME280;963;42.644;23.336;2022-12-08T15:36:10;93904.59;;;11.66;66.48
1472;BME280;963;42.644;23.336;2022-12-08T15:38:36;93890.25;;;11.56;66.87
1472;BME280;963;42.644;23.336;2022-12-08T15:41:02;93900.44;;;11.61;66.97
1472;BME280;963;42.644;23.336;2022-12-08T15:43:30;93902.31;;;11.61;67.04
1472;BME280;963;42.644;23.336;2022-12-08T15:45:56;93911.69;;;11.54;67.30
1472;BME280;963;42.644;23.336;2022-12-08T15:48:24;93912.81;;;11.53;67.42